Time;durP1;ratioP1;P1;durP2;ratioP2;P2;SDS_P1;SDS_P2;PMS_P1;PMS_P2;Temp;Humidity;BMP_temperature;BMP_pressure;BME280_temperature;BME280_humidity;BME280_pressure;Samples;Min_cycle;Max_cycle;Signal;HPM_P1;HPM_P2
2022/01/16 00:04:43;;;;;;;50.70;45.40;;;2.00;99.90;;;;;;4996227;28;20388;-81
2022/01/16 00:07:10;;;;;;;51.80;44.95;;;2.00;99.90;;;;;;4995198;28;20479;-80
2022/01/16 00:09:36;;;;;;;49.22;42.95;;;2.00;99.90;;;;;;4995769;28;20494;-81
2022/01/16 00:12:07;;;;;;;54.70;46.10;;;2.00;99.90;;;;;;4995023;28;20034;-82
2022/01/16 00:14:33;;;;;;;53.42;45.58;;;2.00;99.90;;;;;;4995059;28;20050;-81
2022/01/16 00:17:00;;;;;;;58.20;45.83;;;2.00;99.90;;;;;;4995814;28;20023;-80
2022/01/16 00:19:26;;;;;;;49.92;44.70;;;2.00;99.90;;;;;;4995221;28;20487;-80
2022/01/16 00:21:53;;;;;;;54.33;46.28;;;2.00;99.90;;;;;;4978256;28;20046;-80
2022/01/16 00:24:19;;;;;;;53.45;42.60;;;2.00;99.90;;;;;;4994685;28;20050;-80
2022/01/16 00:26:45;;;;;;;66.30;44.00;;;2.00;99.90;;;;;;4995379;28;20034;-80
2022/01/16 00:29:12;;;;;;;56.03;42.63;;;2.00;99.90;;;;;;4994917;28;20045;-80
2022/01/16 00:31:40;;;;;;;49.90;41.22;;;2.00;99.90;;;;;;4993772;28;20089;-80
2022/01/16 00:34:08;;;;;;;50.17;42.28;;;2.00;99.90;;;;;;4994105;28;20037;-81
2022/01/16 00:36:35;;;;;;;46.38;39.22;;;2.00;99.90;;;;;;4993342;28;20049;-81
2022/01/16 00:39:01;;;;;;;46.35;40.53;;;1.90;99.90;;;;;;4995239;28;20034;-80
2022/01/16 00:41:27;;;;;;;41.78;37.20;;;1.90;99.90;;;;;;4994399;28;20498;-80
2022/01/16 00:43:54;;;;;;;53.47;38.83;;;1.80;99.90;;;;;;4995137;28;20033;-80
2022/01/16 00:46:21;;;;;;;49.40;37.10;;;1.80;99.90;;;;;;4994352;28;20035;-80
2022/01/16 00:48:48;;;;;;;52.60;39.15;;;1.80;99.90;;;;;;4994036;28;20042;-81
2022/01/16 00:51:16;;;;;;;51.35;39.85;;;1.80;99.90;;;;;;4993262;28;20050;-81
2022/01/16 00:53:43;;;;;;;53.15;40.17;;;1.80;99.90;;;;;;4995129;28;20030;-81
2022/01/16 00:56:10;;;;;;;47.05;39.00;;;1.80;99.90;;;;;;4994107;28;20035;-81
2022/01/16 00:58:36;;;;;;;48.83;40.90;;;1.90;99.90;;;;;;4995061;28;20038;-80
2022/01/16 01:01:02;;;;;;;49.80;42.85;;;1.90;99.90;;;;;;4994572;28;20391;-80
2022/01/16 01:03:30;;;;;;;51.67;42.30;;;1.90;99.90;;;;;;4994149;28;20495;-80
2022/01/16 01:05:56;;;;;;;61.15;41.10;;;1.90;99.90;;;;;;4994886;28;20510;-80
2022/01/16 01:08:26;;;;;;;47.90;41.22;;;1.90;99.90;;;;;;4994254;28;20102;-80
2022/01/16 01:10:53;;;;;;;52.20;46.30;;;1.80;99.90;;;;;;4993555;28;20034;-80
2022/01/16 01:13:31;;;;;;;50.08;44.60;;;1.80;99.90;;;;;;4993095;28;20041;-81
2022/01/16 01:16:02;;;;;;;54.80;48.70;;;1.80;99.90;;;;;;4994235;28;20038;-80
2022/01/16 01:18:29;;;;;;;;;;;1.80;99.90;;;;;;4994260;28;20487;-80
2022/01/16 01:20:57;;;;;;;53.35;46.45;;;1.80;99.90;;;;;;4994345;28;20343;-81
2022/01/16 01:23:23;;;;;;;61.15;50.03;;;1.70;99.90;;;;;;4993514;28;20057;-80
2022/01/16 01:25:50;;;;;;;67.45;50.33;;;1.70;99.90;;;;;;4994575;28;20053;-80
2022/01/16 01:28:16;;;;;;;63.22;49.95;;;1.70;99.90;;;;;;4993813;28;20050;-80
2022/01/16 01:30:46;;;;;;;58.50;49.53;;;1.70;99.90;;;;;;4994267;28;20042;-81
2022/01/16 01:33:14;;;;;;;65.63;49.22;;;1.70;99.90;;;;;;4993592;28;20030;-80
2022/01/16 01:35:42;;;;;;;57.65;49.08;;;1.70;99.90;;;;;;4994233;28;20030;-80
2022/01/16 01:38:10;;;;;;;56.42;48.72;;;1.70;99.90;;;;;;4993476;28;20041;-81
2022/01/16 01:40:39;;;;;;;60.95;49.85;;;1.70;99.90;;;;;;4993948;28;20345;-80
2022/01/16 01:51:14;;;;;;;56.97;46.67;;;1.70;99.90;;;;;;4993295;28;20030;-80
2022/01/16 01:53:42;;;;;;;58.45;46.58;;;1.70;99.90;;;;;;4993567;28;20039;-80
2022/01/16 01:56:11;;;;;;;60.67;44.78;;;1.70;99.90;;;;;;4992977;28;20033;-81
2022/01/16 01:58:38;;;;;;;56.13;43.63;;;1.60;99.90;;;;;;4993937;28;20045;-81
2022/01/16 02:01:05;;;;;;;55.80;44.70;;;1.60;99.90;;;;;;4993752;28;20038;-81
2022/01/16 02:06:15;;;;;;;64.60;50.70;;;1.60;99.90;;;;;;4994018;28;20045;-81
2022/01/16 02:08:43;;;;;;;58.15;49.40;;;1.70;99.90;;;;;;4993881;28;20034;-81
2022/01/16 02:11:14;;;;;;;56.58;47.33;;;1.70;99.90;;;;;;4992731;28;20039;-80
2022/01/16 02:14:03;;;;;;;63.35;48.65;;;1.70;99.90;;;;;;4993676;28;20026;-81
2022/01/16 02:28:02;;;;;;;66.97;49.58;;;1.70;99.90;;;;;;4992432;28;20039;-81
2022/01/16 02:35:38;;;;;;;62.45;51.95;;;1.70;99.90;;;;;;4993211;28;20039;-80
2022/01/16 02:38:06;;;;;;;64.72;50.63;;;1.60;99.90;;;;;;4993041;28;20369;-80
2022/01/16 02:40:32;;;;;;;58.67;50.75;;;1.60;99.90;;;;;;4992899;28;20058;-80
2022/01/16 02:42:59;;;;;;;74.97;51.83;;;1.60;99.90;;;;;;4993345;28;20034;-81
2022/01/16 02:45:32;;;;;;;67.13;50.40;;;1.60;99.90;;;;;;4992907;28;20026;-81
2022/01/16 02:48:02;;;;;;;66.80;51.05;;;1.60;99.90;;;;;;4994452;28;20034;-80
2022/01/16 02:50:30;;;;;;;68.72;51.78;;;1.60;99.90;;;;;;4994733;28;20035;-79
2022/01/16 02:52:56;;;;;;;69.20;51.50;;;1.60;99.90;;;;;;4994419;28;20041;-80
2022/01/16 02:55:23;;;;;;;77.57;52.78;;;1.60;99.90;;;;;;4993512;28;20031;-80
2022/01/16 02:57:51;;;;;;;69.80;52.08;;;1.60;99.90;;;;;;4997123;28;20030;-81
2022/01/16 03:00:17;;;;;;;69.68;52.60;;;1.60;99.90;;;;;;4996548;28;20042;-80
2022/01/16 03:02:44;;;;;;;70.32;53.88;;;1.60;99.90;;;;;;4996672;28;20038;-80
2022/01/16 03:05:13;;;;;;;65.97;49.95;;;1.70;99.90;;;;;;4996833;28;20037;-81
2022/01/16 03:07:39;;;;;;;62.33;47.08;;;1.70;99.90;;;;;;4996625;28;20026;-81
2022/01/16 03:12:49;;;;;;;50.55;43.00;;;1.70;99.90;;;;;;4996819;28;20030;-81
2022/01/16 03:15:16;;;;;;;51.53;41.88;;;1.70;99.90;;;;;;4995996;28;20099;-81
2022/01/16 03:21:53;;;;;;;54.95;42.63;;;1.70;99.90;;;;;;4996502;28;20034;-81
2022/01/16 03:23:24;;;;;;;63.15;42.95;;;1.70;99.90;;;;;;4995601;28;20034;-81
2022/01/16 03:25:52;;;;;;;50.45;37.83;;;1.70;99.90;;;;;;4996212;28;20034;-80
2022/01/16 03:28:19;;;;;;;54.58;41.08;;;1.70;99.90;;;;;;4995511;28;20038;-81
2022/01/16 03:30:46;;;;;;;47.97;39.35;;;1.70;99.90;;;;;;4996014;28;20038;-81
2022/01/16 03:33:12;;;;;;;52.78;40.67;;;1.70;99.90;;;;;;4996073;28;20045;-81
2022/01/16 03:35:39;;;;;;;61.13;38.83;;;1.70;99.90;;;;;;4996079;28;20022;-80
2022/01/16 03:38:06;;;;;;;49.97;39.53;;;1.70;99.90;;;;;;4996445;28;20038;-80
2022/01/16 03:40:32;;;;;;;57.55;40.05;;;1.70;99.90;;;;;;4995315;28;20054;-81
2022/01/16 03:43:09;;;;;;;59.05;39.47;;;1.70;99.90;;;;;;4995797;28;20030;-81
2022/01/16 03:45:36;;;;;;;45.45;36.88;;;1.70;99.90;;;;;;4995516;28;20034;-80
2022/01/16 03:48:02;;;;;;;50.50;35.83;;;1.70;99.90;;;;;;4995897;28;20030;-80
2022/01/16 03:50:28;;;;;;;39.75;34.17;;;1.70;99.90;;;;;;4995484;28;20034;-81
2022/01/16 03:52:54;;;;;;;45.58;34.75;;;1.70;99.90;;;;;;4995500;28;20038;-81
2022/01/16 03:55:21;;;;;;;46.75;35.83;;;1.70;99.90;;;;;;4994514;28;20389;-81
2022/01/16 03:57:47;;;;;;;42.38;35.28;;;1.70;99.90;;;;;;4995864;28;20037;-81
2022/01/16 04:00:13;;;;;;;45.60;32.75;;;1.70;99.90;;;;;;4995340;28;20038;-80
2022/01/16 04:02:40;;;;;;;44.42;32.22;;;1.70;99.90;;;;;;4995347;28;20042;-80
2022/01/16 04:05:07;;;;;;;34.65;30.92;;;1.70;99.90;;;;;;4995546;28;20053;-80
2022/01/16 04:07:35;;;;;;;51.88;32.40;;;1.60;99.90;;;;;;4994592;28;20456;-80
2022/01/16 04:10:06;;;;;;;51.60;33.83;;;1.70;99.90;;;;;;4995687;28;20039;-81
2022/01/16 04:12:34;;;;;;;60.17;34.93;;;1.60;99.90;;;;;;4994987;28;20065;-81
2022/01/16 04:17:27;;;;;;;39.13;31.77;;;1.60;99.90;;;;;;4994780;28;20365;-80
2022/01/16 04:19:53;;;;;;;55.53;38.78;;;1.60;99.90;;;;;;4994962;28;20037;-80
2022/01/16 04:22:20;;;;;;;95.07;63.60;;;1.60;99.90;;;;;;4994821;28;20058;-81
2022/01/16 04:24:48;;;;;;;54.38;37.47;;;1.60;99.90;;;;;;4993017;28;20043;-81
2022/01/16 04:27:15;;;;;;;46.45;37.13;;;1.70;99.90;;;;;;4995035;28;20503;-80
2022/01/16 04:29:45;;;;;;;50.22;40.33;;;1.60;99.90;;;;;;4995093;28;20483;-80
2022/01/16 04:32:12;;;;;;;87.53;61.83;;;1.60;99.90;;;;;;4995343;28;20061;-80
2022/01/16 04:34:38;;;;;;;53.17;43.38;;;1.60;99.90;;;;;;4994553;28;20034;-80
2022/01/16 04:37:05;;;;;;;56.97;41.25;;;1.60;99.90;;;;;;4995129;28;20038;-80
2022/01/16 04:39:33;;;;;;;88.45;62.88;;;1.60;99.90;;;;;;4994381;28;20038;-80
2022/01/16 04:44:46;;;;;;;46.28;32.85;;;1.50;99.90;;;;;;4995385;28;20054;-80
2022/01/16 04:47:12;;;;;;;47.83;31.55;;;1.50;99.90;;;;;;4994853;28;20491;-80
2022/01/16 04:49:38;;;;;;;42.65;36.70;;;1.50;99.90;;;;;;4994619;28;20041;-80
2022/01/16 04:52:05;;;;;;;41.42;30.77;;;1.50;99.90;;;;;;4994789;28;20468;-80
2022/01/16 04:54:32;;;;;;;46.08;32.30;;;1.50;99.90;;;;;;4995182;28;20476;-80
2022/01/16 04:56:58;;;;;;;51.72;34.88;;;1.40;99.90;;;;;;4994799;28;20031;-81
2022/01/16 04:59:24;;;;;;;35.33;30.33;;;1.40;99.90;;;;;;4994030;28;20463;-81
2022/01/16 05:01:51;;;;;;;40.22;29.73;;;1.40;99.90;;;;;;4994643;28;20042;-80
2022/01/16 05:04:17;;;;;;;41.63;31.77;;;1.30;99.90;;;;;;4994737;28;20035;-80
2022/01/16 05:06:44;;;;;;;39.70;31.73;;;1.40;99.90;;;;;;4994474;28;20038;-80
2022/01/16 05:09:10;;;;;;;58.10;36.42;;;1.30;99.90;;;;;;4994613;28;20487;-80
2022/01/16 05:11:37;;;;;;;45.33;32.72;;;1.30;99.90;;;;;;4993884;28;20041;-80
2022/01/16 05:16:37;;;;;;;48.85;34.33;;;1.20;99.90;;;;;;4994095;28;20034;-81
2022/01/16 05:19:06;;;;;;;42.03;33.08;;;1.20;99.90;;;;;;4993900;28;20091;-81
2022/01/16 05:21:33;;;;;;;45.30;32.15;;;1.20;99.90;;;;;;4993623;28;20042;-81
2022/01/16 05:23:59;;;;;;;52.00;34.90;;;1.10;99.90;;;;;;4994537;28;20062;-80
2022/01/16 05:26:27;;;;;;;53.33;32.30;;;1.10;99.90;;;;;;4993669;28;20030;-81
2022/01/16 05:28:57;;;;;;;51.22;34.65;;;1.00;99.90;;;;;;4994293;28;20042;-80
2022/01/16 05:31:24;;;;;;;54.92;33.60;;;0.90;99.90;;;;;;4993768;28;20049;-81
2022/01/16 05:33:51;;;;;;;51.95;34.85;;;1.00;99.90;;;;;;4994293;28;20033;-80
2022/01/16 05:36:21;;;;;;;48.60;34.13;;;1.00;99.90;;;;;;4993850;28;20033;-81
2022/01/16 05:38:49;;;;;;;64.15;36.47;;;0.90;99.90;;;;;;4994004;28;20034;-80
2022/01/16 05:41:18;;;;;;;59.95;38.97;;;0.80;99.90;;;;;;4993848;28;20042;-80
2022/01/16 05:43:45;;;;;;;61.15;37.08;;;0.90;99.90;;;;;;4993331;28;20030;-80
2022/01/16 05:46:13;;;;;;;51.00;36.28;;;0.80;99.90;;;;;;4993733;28;20045;-79
2022/01/16 05:48:39;;;;;;;58.40;38.17;;;0.80;99.90;;;;;;4993495;28;20026;-80
2022/01/16 05:51:05;;;;;;;51.55;35.20;;;0.80;99.90;;;;;;4993750;28;20388;-80
2022/01/16 05:53:32;;;;;;;47.55;36.42;;;0.90;99.90;;;;;;4993181;28;20042;-81
2022/01/16 05:55:58;;;;;;;49.97;36.03;;;0.90;99.90;;;;;;4993892;28;20035;-81
2022/01/16 05:58:24;;;;;;;59.65;36.45;;;0.90;99.90;;;;;;4993322;28;20415;-81
2022/01/16 06:00:50;;;;;;;53.42;35.25;;;0.90;99.90;;;;;;4993995;28;20046;-80
2022/01/16 06:03:16;;;;;;;50.80;32.10;;;0.80;99.90;;;;;;4993555;28;20034;-80
2022/01/16 06:05:43;;;;;;;48.03;33.28;;;0.80;99.90;;;;;;4993299;28;20034;-81
2022/01/16 06:08:12;;;;;;;40.70;32.47;;;0.80;99.90;;;;;;4993686;28;20053;-81
2022/01/16 06:10:39;;;;;;;47.53;34.13;;;0.70;99.90;;;;;;4993039;28;20035;-80
2022/01/16 06:13:05;;;;;;;45.88;32.95;;;0.80;99.90;;;;;;4994896;28;20053;-80
2022/01/16 06:15:32;;;;;;;51.00;34.25;;;0.80;99.90;;;;;;4993176;28;20034;-80
2022/01/16 06:18:00;;;;;;;49.15;33.35;;;0.80;99.90;;;;;;4993319;28;20460;-80
2022/01/16 06:20:27;;;;;;;46.20;35.15;;;0.80;99.90;;;;;;4992877;28;20039;-81
2022/01/16 06:22:53;;;;;;;43.58;32.95;;;0.80;99.90;;;;;;4993329;28;20460;-80
2022/01/16 06:25:22;;;;;;;41.75;33.53;;;0.80;99.90;;;;;;4993913;28;20050;-80
2022/01/16 06:27:49;;;;;;;48.88;32.53;;;0.80;99.90;;;;;;4993296;28;20034;-80
2022/01/16 06:30:15;;;;;;;47.10;32.15;;;0.70;99.90;;;;;;4993220;28;20041;-80
2022/01/16 06:32:42;;;;;;;43.63;33.35;;;0.70;99.90;;;;;;4993015;28;20476;-80
2022/01/16 06:35:09;;;;;;;53.28;33.08;;;0.70;99.90;;;;;;4993189;28;20061;-80
2022/01/16 06:37:36;;;;;;;52.03;32.78;;;0.70;99.90;;;;;;4992610;28;20039;-80
2022/01/16 06:40:04;;;;;;;45.05;32.95;;;0.70;99.90;;;;;;4993230;28;20034;-79
2022/01/16 06:42:30;;;;;;;49.38;33.20;;;0.70;99.90;;;;;;4992532;28;20471;-80
2022/01/16 06:44:56;;;;;;;45.70;33.97;;;0.70;99.90;;;;;;4993053;28;20038;-80
2022/01/16 06:47:22;;;;;;;42.20;33.88;;;0.70;99.90;;;;;;4993328;28;20038;-79
2022/01/16 06:49:49;;;;;;;55.38;34.30;;;0.80;99.90;;;;;;4992387;28;20035;-80
2022/01/16 06:52:15;;;;;;;47.53;33.20;;;0.80;99.90;;;;;;4993087;28;20518;-80
2022/01/16 06:54:41;;;;;;;50.28;35.78;;;0.80;99.90;;;;;;4992730;28;20468;-79
2022/01/16 06:57:08;;;;;;;48.83;34.10;;;0.80;99.90;;;;;;4993261;28;20037;-80
2022/01/16 06:59:38;;;;;;;38.40;32.22;;;0.80;99.90;;;;;;4992462;28;20050;-80
2022/01/16 07:02:05;;;;;;;47.45;32.88;;;0.80;99.90;;;;;;4993178;28;20038;-80
2022/01/16 07:04:32;;;;;;;55.85;36.53;;;0.80;99.90;;;;;;4992752;28;20026;-80
2022/01/16 07:06:59;;;;;;;51.85;35.15;;;0.80;99.90;;;;;;4993353;28;20030;-80
2022/01/16 07:09:25;;;;;;;50.13;35.58;;;0.80;99.90;;;;;;4992830;28;20050;-86
2022/01/16 07:11:51;;;;;;;47.83;35.05;;;0.90;99.90;;;;;;4993117;28;20030;-79
2022/01/16 07:14:18;;;;;;;46.95;33.95;;;0.90;99.90;;;;;;4991448;28;20050;-79
2022/01/16 07:16:44;;;;;;;43.05;33.55;;;0.90;99.90;;;;;;4993734;28;20037;-79
2022/01/16 07:19:10;;;;;;;50.35;37.15;;;0.90;99.90;;;;;;4995654;28;20464;-79
2022/01/16 07:21:36;;;;;;;53.78;38.20;;;0.90;99.90;;;;;;4993816;28;20030;-78
2022/01/16 07:24:03;;;;;;;72.82;53.10;;;0.90;99.90;;;;;;4992969;28;20046;-78
2022/01/16 07:26:29;;;;;;;43.88;34.47;;;0.90;99.90;;;;;;4992576;28;20053;-79
2022/01/16 07:28:55;;;;;;;53.92;35.97;;;1.00;99.90;;;;;;4992849;28;20038;-79
2022/01/16 07:31:21;;;;;;;46.35;35.33;;;1.00;99.90;;;;;;4992652;28;20045;-79
2022/01/16 07:33:48;;;;;;;46.63;35.67;;;1.00;99.90;;;;;;4992479;28;20030;-79
2022/01/16 07:36:14;;;;;;;48.50;37.17;;;1.00;99.90;;;;;;4992969;28;20376;-79
2022/01/16 07:38:40;;;;;;;43.53;34.40;;;1.00;99.90;;;;;;4992365;28;20325;-79
2022/01/16 07:41:06;;;;;;;48.28;35.28;;;1.00;99.90;;;;;;4992655;28;20046;-79
2022/01/16 07:43:32;;;;;;;44.80;34.97;;;1.00;99.90;;;;;;4994365;28;20034;-79
2022/01/16 07:45:59;;;;;;;50.55;34.58;;;1.00;99.90;;;;;;4996061;28;20030;-79
2022/01/16 07:48:26;;;;;;;47.28;34.72;;;1.00;99.90;;;;;;4996251;28;20034;-80
2022/01/16 07:50:52;;;;;;;41.78;34.88;;;1.00;99.90;;;;;;4995756;28;20034;-80
2022/01/16 07:53:18;;;;;;;54.10;35.10;;;1.10;99.90;;;;;;4996149;28;20034;-80
2022/01/16 07:55:45;;;;;;;51.67;35.90;;;1.10;99.90;;;;;;4995164;28;20474;-80
2022/01/16 07:58:11;;;;;;;47.22;33.80;;;1.20;99.90;;;;;;4995171;28;20043;-80
2022/01/16 08:00:37;;;;;;;45.17;31.23;;;1.20;99.90;;;;;;4994245;28;20384;-80
2022/01/16 08:03:04;;;;;;;48.00;32.25;;;1.20;99.90;;;;;;4995928;28;20034;-80
2022/01/16 08:05:30;;;;;;;47.10;32.28;;;1.20;99.90;;;;;;4996854;28;20396;-81
2022/01/16 08:07:56;;;;;;;41.67;30.85;;;1.20;99.90;;;;;;4996408;28;20030;-81
2022/01/16 08:10:23;;;;;;;42.17;29.13;;;1.10;99.90;;;;;;4995951;28;20452;-80
2022/01/16 08:12:49;;;;;;;45.03;30.23;;;1.10;99.90;;;;;;4994911;28;20239;-80
2022/01/16 08:15:15;;;;;;;45.50;32.13;;;1.10;99.90;;;;;;4995735;28;20057;-79
2022/01/16 08:17:41;;;;;;;41.78;29.35;;;1.20;99.90;;;;;;4994852;28;20057;-81
2022/01/16 08:20:09;;;;;;;40.28;31.90;;;1.10;99.90;;;;;;4995345;28;20034;-80
2022/01/16 08:22:36;;;;;;;44.55;30.10;;;1.20;99.90;;;;;;4995122;28;20050;-80
2022/01/16 08:25:04;;;;;;;42.85;31.25;;;1.20;99.90;;;;;;4995260;28;20061;-81
2022/01/16 08:27:31;;;;;;;45.72;33.20;;;1.20;99.90;;;;;;4993933;28;20030;-83
2022/01/16 08:29:57;;;;;;;39.20;32.10;;;1.10;99.90;;;;;;4995482;28;20039;-80
2022/01/16 08:32:23;;;;;;;43.50;31.73;;;1.20;99.90;;;;;;4995528;28;20038;-80
2022/01/16 08:34:49;;;;;;;41.03;31.92;;;1.20;99.90;;;;;;4994784;28;20484;-80
2022/01/16 08:37:16;;;;;;;43.50;31.65;;;1.20;99.90;;;;;;4995349;28;20030;-80
2022/01/16 08:39:42;;;;;;;53.88;35.65;;;1.20;99.90;;;;;;4994494;28;20460;-81
2022/01/16 08:42:08;;;;;;;44.03;33.60;;;1.20;99.90;;;;;;4995607;28;20042;-81
2022/01/16 08:44:35;;;;;;;43.17;31.05;;;1.20;99.90;;;;;;4994136;28;20041;-81
2022/01/16 08:47:01;;;;;;;45.65;31.08;;;1.20;99.90;;;;;;4995189;28;20038;-81
2022/01/16 08:49:28;;;;;;;43.67;30.15;;;1.20;99.90;;;;;;4993743;28;20399;-80
2022/01/16 08:51:55;;;;;;;42.85;29.73;;;1.20;99.90;;;;;;4994298;28;20061;-80
2022/01/16 08:54:21;;;;;;;40.05;30.23;;;1.20;99.90;;;;;;4994777;28;20067;-82
2022/01/16 08:56:47;;;;;;;40.63;32.05;;;1.20;99.90;;;;;;4994269;28;20039;-82
2022/01/16 08:59:14;;;;;;;53.65;34.35;;;1.30;99.90;;;;;;4994977;28;20039;-81
2022/01/16 09:01:40;;;;;;;36.70;31.25;;;1.30;99.90;;;;;;4994264;28;20046;-82
2022/01/16 09:04:06;;;;;;;42.05;30.75;;;1.30;99.90;;;;;;4995013;28;20034;-81
2022/01/16 09:06:33;;;;;;;53.78;37.90;;;1.30;99.90;;;;;;4994513;28;20041;-83
2022/01/16 09:08:59;;;;;;;56.42;34.90;;;1.30;99.90;;;;;;4994560;28;20043;-81
2022/01/16 09:11:25;;;;;;;40.50;32.10;;;1.40;99.90;;;;;;4994776;28;20038;-81
2022/01/16 09:13:55;;;;;;;37.85;30.42;;;1.40;99.90;;;;;;4994065;28;20041;-82
2022/01/16 09:16:22;;;;;;;46.92;29.98;;;1.40;99.90;;;;;;4994234;28;20476;-80
2022/01/16 09:18:49;;;;;;;38.97;31.02;;;1.30;99.90;;;;;;4994042;28;20057;-81
2022/01/16 09:21:16;;;;;;;38.78;31.13;;;1.30;99.90;;;;;;4994638;28;20050;-79
2022/01/16 09:23:47;;;;;;;39.92;29.75;;;1.40;99.90;;;;;;4993782;28;20057;-81
2022/01/16 09:26:14;;;;;;;41.47;32.05;;;1.30;99.90;;;;;;4994237;28;20030;-81
2022/01/16 09:28:42;;;;;;;37.65;30.25;;;1.40;99.90;;;;;;4993721;28;20038;-81
2022/01/16 09:31:08;;;;;;;37.20;30.75;;;1.40;99.90;;;;;;4994002;28;20034;-81
2022/01/16 09:33:35;;;;;;;47.85;29.35;;;1.40;99.90;;;;;;4994403;28;20041;-82
2022/01/16 09:36:03;;;;;;;30.52;26.35;;;1.40;99.90;;;;;;4994080;28;20081;-80
2022/01/16 09:38:29;;;;;;;38.03;28.38;;;1.50;99.90;;;;;;4994016;28;20403;-81
2022/01/16 09:40:56;;;;;;;36.17;30.98;;;1.50;99.90;;;;;;4993616;28;20034;-81
2022/01/16 09:43:23;;;;;;;34.30;28.10;;;1.60;99.90;;;;;;4994166;28;20042;-81
2022/01/16 09:45:51;;;;;;;42.35;27.70;;;1.60;99.90;;;;;;4993231;28;20373;-81
2022/01/16 09:48:18;;;;;;;43.45;32.63;;;1.60;99.90;;;;;;4993408;28;20068;-81
2022/01/16 09:50:44;;;;;;;48.53;33.10;;;1.60;99.90;;;;;;4993848;28;20030;-81
2022/01/16 09:53:12;;;;;;;41.78;32.55;;;1.60;99.90;;;;;;4993965;28;20026;-80
2022/01/16 09:55:39;;;;;;;40.97;27.85;;;1.60;99.90;;;;;;4993288;28;20383;-81
2022/01/16 09:58:05;;;;;;;45.03;29.33;;;1.60;99.90;;;;;;4993766;28;20214;-81
2022/01/16 10:00:32;;;;;;;38.63;25.98;;;1.70;99.90;;;;;;4993913;28;20026;-81
2022/01/16 10:02:58;;;;;;;36.80;25.73;;;1.70;99.90;;;;;;4992914;28;20468;-81
2022/01/16 10:05:26;;;;;;;39.17;28.70;;;1.70;99.90;;;;;;4992998;28;20491;-81
2022/01/16 10:07:54;;;;;;;35.00;25.83;;;1.70;99.90;;;;;;4992852;28;20110;-80
2022/01/16 10:10:24;;;;;;;40.33;27.80;;;1.70;99.90;;;;;;4995279;28;20026;-80
2022/01/16 10:12:54;;;;;;;33.40;25.55;;;1.70;99.90;;;;;;4992947;28;20038;-83
2022/01/16 10:15:26;;;;;;;37.78;27.50;;;1.60;99.90;;;;;;4993311;28;20043;-81
2022/01/16 10:17:55;;;;;;;39.78;27.75;;;1.60;99.90;;;;;;4992933;28;20037;-82
2022/01/16 10:20:22;;;;;;;44.38;28.95;;;1.70;99.90;;;;;;4993666;28;20030;-81
2022/01/16 10:22:52;;;;;;;38.15;29.35;;;1.70;99.90;;;;;;4992848;28;20049;-82
2022/01/16 10:25:36;;;;;;;38.15;29.10;;;1.90;99.90;;;;;;4993654;28;20047;-81
2022/01/16 10:28:04;;;;;;;34.58;26.55;;;1.90;99.90;;;;;;4993619;28;20432;-81
2022/01/16 10:30:48;;;;;;;42.42;28.27;;;1.90;99.90;;;;;;4993923;28;20041;-81
2022/01/16 10:33:22;;;;;;;41.35;26.92;;;2.00;99.90;;;;;;4994110;28;20042;-82
2022/01/16 10:35:50;;;;;;;33.33;26.17;;;2.10;99.90;;;;;;4992132;28;20380;-82
2022/01/16 10:38:22;;;;;;;46.25;27.77;;;2.10;99.90;;;;;;4993468;28;20039;-81
2022/01/16 10:40:50;;;;;;;43.08;28.33;;;2.20;99.90;;;;;;4992610;28;20030;-81
2022/01/16 10:43:36;;;;;;;34.90;26.10;;;2.10;99.90;;;;;;4994697;28;20039;-81
2022/01/16 10:46:03;;;;;;;40.33;26.05;;;2.10;99.90;;;;;;4994502;28;20038;-81
2022/01/16 10:48:29;;;;;;;34.10;25.27;;;2.10;99.90;;;;;;4993421;28;20027;-81
2022/01/16 10:50:56;;;;;;;35.67;24.67;;;2.10;99.90;;;;;;4992371;28;20030;-81
2022/01/16 10:53:27;;;;;;;29.77;23.45;;;2.10;99.90;;;;;;4993334;28;20034;-82
2022/01/16 10:55:57;;;;;;;31.40;24.00;;;2.10;99.90;;;;;;4992741;28;20037;-82
2022/01/16 10:58:38;;;;;;;31.95;23.00;;;2.10;99.90;;;;;;4993196;28;20103;-81
2022/01/16 11:01:11;;;;;;;;;;;2.10;99.90;;;;;;4993285;28;20456;-82
2022/01/16 11:03:46;;;;;;;36.83;24.73;;;2.10;99.90;;;;;;4993059;28;19922;-81
2022/01/16 11:06:13;;;;;;;31.38;23.73;;;2.10;99.90;;;;;;4992987;28;20030;-81
2022/01/16 11:08:40;;;;;;;27.33;23.70;;;2.10;99.90;;;;;;4992846;28;20029;-81
2022/01/16 11:11:07;;;;;;;41.55;27.63;;;2.10;99.90;;;;;;4990948;28;20042;-81
2022/01/16 11:13:35;;;;;;;36.28;25.42;;;2.10;99.90;;;;;;4993148;28;20030;-81
2022/01/16 11:16:04;;;;;;;30.05;25.10;;;2.20;99.90;;;;;;4991978;28;20037;-81
2022/01/16 11:18:31;;;;;;;31.88;24.35;;;2.20;99.90;;;;;;4995297;28;20026;-81
2022/01/16 11:21:13;;;;;;;31.60;25.02;;;2.30;99.90;;;;;;4996676;28;20035;-81
2022/01/16 11:26:12;;;;;;;36.40;27.52;;;2.30;99.90;;;;;;4996611;28;20043;-80
2022/01/16 11:28:38;;;;;;;30.40;25.27;;;2.30;99.90;;;;;;4995308;28;20047;-80
2022/01/16 11:31:07;;;;;;;36.30;25.45;;;2.30;99.90;;;;;;4997043;28;20045;-81
2022/01/16 11:33:34;;;;;;;30.83;23.48;;;2.20;99.90;;;;;;4995895;28;20041;-81
2022/01/16 11:36:04;;;;;;;28.50;22.65;;;2.20;99.90;;;;;;4996353;28;20050;-81
2022/01/16 11:38:34;;;;;;;42.75;25.05;;;2.20;99.90;;;;;;4996447;28;20030;-82
2022/01/16 11:41:11;;;;;;;29.05;23.67;;;2.30;99.90;;;;;;4996143;28;20045;-81
2022/01/16 11:43:38;;;;;;;31.23;23.02;;;2.30;99.90;;;;;;4996324;28;20045;-81
2022/01/16 11:46:17;;;;;;;29.60;23.30;;;2.30;99.90;;;;;;4998331;28;20043;-80
2022/01/16 11:48:47;;;;;;;32.08;22.98;;;2.30;99.90;;;;;;5000606;28;20112;-81
2022/01/16 11:54:09;;;;;;;30.58;23.45;;;2.30;99.90;;;;;;4995470;28;20038;-81
2022/01/16 11:56:41;;;;;;;30.35;23.17;;;2.30;99.90;;;;;;4996408;28;20026;-80
2022/01/16 11:59:25;;;;;;;37.55;28.27;;;2.30;99.90;;;;;;4995755;28;20030;-80
2022/01/16 12:02:03;;;;;;;31.98;24.30;;;2.30;99.90;;;;;;4995284;28;20522;-80
2022/01/16 12:04:29;;;;;;;61.30;45.40;;;2.40;99.90;;;;;;4995806;28;20045;-79
2022/01/16 12:07:21;;;;;;;38.08;30.27;;;2.40;99.90;;;;;;4995601;28;20034;-80
2022/01/16 12:09:49;;;;;;;34.40;26.70;;;2.40;99.90;;;;;;4995806;28;20479;-81
2022/01/16 12:12:16;;;;;;;33.80;26.35;;;2.50;99.90;;;;;;4995693;28;20038;-79
2022/01/16 12:14:55;;;;;;;35.15;27.42;;;2.50;99.90;;;;;;4995751;28;20041;-80
2022/01/16 12:17:31;;;;;;;31.60;25.25;;;2.50;99.90;;;;;;4995882;28;20042;-81
2022/01/16 12:19:58;;;;;;;34.85;25.23;;;2.60;99.90;;;;;;4995152;28;20041;-79
2022/01/16 12:22:43;;;;;;;41.60;25.40;;;2.60;99.90;;;;;;4995949;28;20035;-80
2022/01/16 12:25:20;;;;;;;32.90;27.00;;;2.70;99.90;;;;;;4995549;28;20058;-80
2022/01/16 12:27:53;;;;;;;44.60;29.25;;;2.70;99.90;;;;;;4995091;28;20038;-80
2022/01/16 12:30:32;;;;;;;35.03;29.23;;;2.80;99.90;;;;;;4995215;28;20034;-79
2022/01/16 12:33:09;;;;;;;43.03;28.67;;;2.90;99.90;;;;;;4995111;28;20042;-80
2022/01/16 12:35:41;;;;;;;35.47;25.40;;;2.90;99.90;;;;;;4995519;28;20057;-79
2022/01/16 12:38:10;;;;;;;38.40;24.85;;;3.00;99.90;;;;;;4994820;28;20034;-80
2022/01/16 12:40:38;;;;;;;29.45;23.52;;;3.10;99.90;;;;;;4995751;28;20034;-80
2022/01/16 12:43:09;;;;;;;31.92;23.63;;;3.10;99.90;;;;;;4995142;28;20042;-80
2022/01/16 12:45:45;;;;;;;;;;;3.20;99.90;;;;;;4996407;28;20038;-80
2022/01/16 12:48:14;;;;;;;41.42;34.60;;;3.20;99.90;;;;;;4996014;28;19909;-80
2022/01/16 12:50:40;;;;;;;58.13;41.35;;;3.30;99.90;;;;;;4995583;28;20034;-80
2022/01/16 12:53:06;;;;;;;49.55;42.80;;;3.30;99.90;;;;;;4994540;28;20046;-80
2022/01/16 12:55:34;;;;;;;38.50;32.05;;;3.40;99.90;;;;;;4995044;28;20035;-81
2022/01/16 12:58:21;;;;;;;37.75;30.17;;;3.50;99.70;;;;;;4994826;28;20035;-80
2022/01/16 13:01:06;;;;;;;32.22;27.83;;;3.60;99.10;;;;;;4994312;28;20035;-81
2022/01/16 13:03:35;;;;;;;29.70;24.60;;;3.60;98.70;;;;;;4995344;28;20100;-80
2022/01/16 13:06:20;;;;;;;31.52;25.55;;;3.60;98.40;;;;;;4994449;28;20034;-80
2022/01/16 13:09:02;;;;;;;28.13;24.75;;;3.70;98.40;;;;;;4994905;28;20034;-84
2022/01/16 13:11:31;;;;;;;30.50;24.77;;;3.70;98.30;;;;;;4994951;28;20046;-80
2022/01/16 13:13:58;;;;;;;28.00;24.65;;;3.70;98.40;;;;;;4994283;28;20464;-81
2022/01/16 13:16:28;;;;;;;37.25;24.55;;;3.60;98.10;;;;;;4994653;28;20055;-80
2022/01/16 13:18:58;;;;;;;34.05;27.65;;;3.60;98.50;;;;;;4994610;28;20037;-80
2022/01/16 13:21:32;;;;;;;40.33;33.67;;;3.70;99.00;;;;;;4994284;28;20038;-80
2022/01/16 13:23:58;;;;;;;37.15;30.02;;;3.70;99.00;;;;;;4994060;28;20081;-80
2022/01/16 13:26:29;;;;;;;37.90;25.13;;;3.70;98.90;;;;;;4994270;28;20038;-80
2022/01/16 13:29:06;;;;;;;54.42;35.80;;;3.70;98.60;;;;;;4993923;28;20483;-80
2022/01/16 13:31:36;;;;;;;40.60;34.65;;;3.70;98.60;;;;;;4994193;28;20045;-80
2022/01/16 13:34:15;;;;;;;30.75;26.48;;;3.70;98.70;;;;;;4993258;28;20046;-80